createdAt,value
2017-04-29T00:00:40.173Z,3.24
2017-04-29T00:01:40.198Z,3.23
2017-04-29T00:02:35.217Z,3.16
2017-04-29T00:03:30.255Z,3.12
2017-04-29T00:04:31.588Z,3.05
2017-04-29T00:05:26.310Z,3.02
2017-04-29T00:06:15.320Z,3.00
2017-04-29T00:07:10.378Z,3.01
2017-04-29T00:07:59.453Z,2.98
2017-04-29T00:08:53.439Z,2.97
2017-04-29T00:09:47.457Z,2.94
2017-04-29T00:10:36.535Z,2.94
2017-04-29T00:11:36.545Z,2.92
2017-04-29T00:12:24.558Z,2.88
2017-04-29T00:13:19.622Z,2.87
2017-04-29T00:14:08.636Z,2.86
2017-04-29T00:14:57.709Z,2.80
2017-04-29T00:15:45.728Z,2.78
2017-04-29T00:16:39.734Z,2.75
2017-04-29T00:17:27.740Z,2.74
2017-04-29T00:18:21.813Z,2.77
2017-04-29T00:19:21.904Z,2.76
2017-04-29T00:20:22.072Z,2.72
2017-04-29T00:21:21.960Z,2.71
2017-04-29T00:22:15.943Z,2.68
2017-04-29T00:23:16.943Z,2.64
2017-04-29T00:24:16.989Z,2.58
2017-04-29T00:25:12.017Z,2.57
2017-04-29T00:26:12.060Z,2.55
2017-04-29T00:27:06.077Z,2.55
2017-04-29T00:28:07.148Z,2.50
2017-04-29T00:29:07.138Z,2.51
2017-04-29T00:30:02.160Z,2.48
2017-04-29T00:30:51.232Z,2.50
2017-04-29T00:31:40.212Z,2.46
2017-04-29T00:32:29.226Z,2.40
2017-04-29T00:33:23.310Z,2.44
2017-04-29T00:34:18.298Z,2.42
2017-04-29T00:35:12.329Z,2.42
2017-04-29T00:36:06.404Z,2.43
2017-04-29T00:37:01.743Z,2.42
2017-04-29T00:37:50.434Z,2.40
2017-04-29T00:38:38.509Z,2.36
2017-04-29T00:39:26.584Z,2.36
2017-04-29T00:40:15.511Z,2.34
2017-04-29T00:41:03.605Z,2.35
2017-04-29T00:41:52.661Z,2.34
2017-04-29T00:42:41.708Z,2.32
2017-04-29T00:43:30.741Z,2.33
2017-04-29T00:44:18.741Z,2.31
2017-04-29T00:45:07.794Z,2.34
2017-04-29T00:45:55.850Z,2.37
2017-04-29T00:46:44.919Z,2.42
2017-04-29T00:47:38.887Z,2.44
2017-04-29T00:48:33.956Z,2.41
2017-04-29T00:49:22.932Z,2.39
2017-04-29T00:50:17.006Z,2.35
2017-04-29T00:51:12.014Z,2.35
2017-04-29T00:52:06.089Z,2.36
2017-04-29T00:53:01.113Z,2.38
2017-04-29T00:53:55.154Z,2.38
2017-04-29T00:54:50.352Z,2.33
2017-04-29T00:55:39.188Z,2.38
2017-04-29T00:56:28.229Z,2.42
2017-04-29T00:57:17.218Z,2.40
2017-04-29T00:58:12.250Z,2.43
2017-04-29T00:59:06.298Z,2.46
2017-04-29T01:00:01.332Z,2.44
2017-04-29T01:00:56.347Z,2.49
2017-04-29T01:01:44.401Z,2.52
2017-04-29T01:02:32.434Z,2.51
2017-04-29T01:03:26.430Z,2.54
2017-04-29T01:04:20.528Z,2.54
2017-04-29T01:05:15.531Z,2.60
2017-04-29T01:06:10.541Z,2.61
2017-04-29T01:06:58.603Z,2.62
2017-04-29T01:07:46.636Z,2.64
2017-04-29T01:08:34.694Z,2.66
2017-04-29T01:09:23.761Z,2.65
2017-04-29T01:10:11.751Z,2.66
2017-04-29T01:10:59.787Z,2.66
2017-04-29T01:11:59.873Z,2.68
2017-04-29T01:12:54.871Z,2.66
2017-04-29T01:13:49.895Z,2.65
2017-04-29T01:14:51.176Z,2.68
2017-04-29T01:15:50.923Z,2.70
2017-04-29T01:16:50.972Z,2.73
2017-04-29T01:17:39.987Z,2.78
2017-04-29T01:18:28.999Z,2.81
2017-04-29T01:19:18.046Z,2.84
2017-04-29T01:20:07.110Z,2.86
2017-04-29T01:21:08.121Z,2.87
2017-04-29T01:22:02.143Z,2.92
2017-04-29T01:22:50.206Z,2.90
2017-04-29T01:23:39.252Z,2.92
2017-04-29T01:24:28.255Z,2.89
2017-04-29T01:25:22.894Z,2.90
2017-04-29T01:26:11.354Z,2.88
2017-04-29T01:27:05.371Z,2.89
2017-04-29T01:27:53.361Z,2.87
2017-04-29T01:28:47.427Z,2.90
2017-04-29T01:29:35.451Z,2.89
2017-04-29T01:30:35.516Z,2.88
2017-04-29T01:31:23.532Z,2.88
2017-04-29T01:32:18.550Z,2.86
2017-04-29T01:33:06.640Z,2.85
2017-04-29T01:33:54.655Z,2.84
2017-04-29T01:34:43.647Z,2.84
2017-04-29T01:35:31.697Z,2.82
2017-04-29T01:36:19.759Z,2.80
2017-04-29T01:37:07.782Z,2.78
2017-04-29T01:37:56.814Z,2.78
2017-04-29T01:38:50.915Z,2.80
2017-04-29T01:39:38.908Z,2.77
2017-04-29T01:40:26.994Z,2.75
2017-04-29T01:41:15.931Z,2.76
2017-04-29T01:42:04.027Z,2.79
2017-04-29T01:42:52.100Z,2.78
2017-04-29T01:43:40.052Z,2.80
2017-04-29T01:44:28.157Z,2.84
2017-04-29T01:45:16.134Z,2.85
2017-04-29T01:46:10.219Z,2.88
2017-04-29T01:47:05.248Z,2.88
2017-04-29T01:48:05.240Z,2.88
2017-04-29T01:49:00.251Z,2.89
2017-04-29T01:49:49.340Z,2.88
2017-04-29T01:50:37.344Z,2.88
2017-04-29T01:51:32.396Z,2.87
2017-04-29T01:52:27.445Z,2.88
2017-04-29T01:53:15.432Z,2.88
2017-04-29T01:54:03.546Z,2.87
2017-04-29T01:54:51.756Z,2.86
2017-04-29T01:55:40.569Z,2.89
2017-04-29T01:56:28.656Z,2.88
2017-04-29T01:57:16.627Z,2.89
2017-04-29T01:58:05.714Z,2.88
2017-04-29T01:58:59.730Z,2.87
2017-04-29T01:59:59.723Z,2.88
2017-04-29T02:00:53.737Z,2.88
2017-04-29T02:01:54.773Z,2.87
2017-04-29T02:02:49.847Z,2.88
2017-04-29T02:03:44.868Z,2.88
2017-04-29T02:04:39.902Z,2.92
2017-04-29T02:05:34.910Z,2.93
2017-04-29T02:06:35.925Z,2.94
2017-04-29T02:07:35.959Z,2.96
2017-04-29T02:08:35.975Z,2.95
2017-04-29T02:09:31.039Z,2.96
2017-04-29T02:10:25.043Z,2.94
2017-04-29T02:11:25.129Z,2.92
2017-04-29T02:12:14.109Z,2.94
2017-04-29T02:13:08.147Z,2.90
2017-04-29T02:14:03.198Z,2.89
2017-04-29T02:15:03.612Z,2.90
2017-04-29T02:16:03.242Z,2.88
2017-04-29T02:16:57.257Z,2.85
2017-04-29T02:17:57.316Z,2.84
2017-04-29T02:18:52.298Z,2.85
2017-04-29T02:19:47.361Z,2.86
2017-04-29T02:20:35.442Z,2.86
2017-04-29T02:21:30.436Z,2.86
2017-04-29T02:22:19.456Z,2.86
2017-04-29T02:23:07.538Z,2.86
2017-04-29T02:23:56.551Z,2.82
2017-04-29T02:24:50.563Z,2.84
2017-04-29T02:25:39.622Z,2.86
2017-04-29T02:26:39.637Z,2.86
2017-04-29T02:27:28.651Z,2.86
2017-04-29T02:28:22.718Z,2.83
2017-04-29T02:29:17.730Z,2.82
2017-04-29T02:30:11.742Z,2.82
2017-04-29T02:31:00.830Z,2.80
2017-04-29T02:31:48.804Z,2.80
2017-04-29T02:32:36.904Z,2.76
2017-04-29T02:33:25.915Z,2.76
2017-04-29T02:34:19.924Z,2.76
2017-04-29T02:35:13.947Z,2.76
2017-04-29T02:36:03.023Z,2.78
2017-04-29T02:36:57.019Z,2.78
2017-04-29T02:37:58.045Z,2.78
2017-04-29T02:38:58.104Z,2.77
2017-04-29T02:39:58.162Z,2.74
2017-04-29T02:40:52.136Z,2.76
2017-04-29T02:41:52.200Z,2.80
2017-04-29T02:42:46.217Z,2.82
2017-04-29T02:43:35.251Z,2.85
2017-04-29T02:44:29.252Z,2.86
2017-04-29T02:45:17.318Z,2.86
2017-04-29T02:46:05.377Z,2.88
2017-04-29T02:46:53.422Z,2.84
2017-04-29T02:47:41.458Z,2.80
2017-04-29T02:48:35.453Z,2.80
2017-04-29T02:49:29.504Z,2.78
2017-04-29T02:50:17.509Z,2.81
2017-04-29T02:51:05.553Z,2.78
2017-04-29T02:52:00.621Z,2.78
2017-04-29T02:52:54.659Z,2.80
2017-04-29T02:53:48.653Z,2.80
2017-04-29T02:54:42.728Z,2.81
2017-04-29T02:55:42.727Z,2.82
2017-04-29T02:56:31.749Z,2.82
2017-04-29T02:57:20.787Z,2.80
2017-04-29T02:58:09.808Z,2.78
2017-04-29T02:59:09.820Z,2.79
2017-04-29T03:00:03.901Z,2.78
2017-04-29T03:00:57.968Z,2.78
2017-04-29T03:01:52.965Z,2.75
2017-04-29T03:02:42.151Z,2.73
2017-04-29T03:03:30.024Z,2.68
2017-04-29T03:04:18.053Z,2.64
2017-04-29T03:05:12.106Z,2.62
2017-04-29T03:06:07.298Z,2.61
2017-04-29T03:06:55.153Z,2.56
2017-04-29T03:07:49.211Z,2.56
2017-04-29T03:08:55.244Z,2.54
2017-04-29T03:09:55.690Z,2.51
2017-04-29T03:10:49.247Z,2.50
2017-04-29T03:11:44.319Z,2.47
2017-04-29T03:12:33.363Z,2.43
2017-04-29T03:13:22.395Z,2.41
2017-04-29T03:14:10.368Z,2.38
2017-04-29T03:14:58.471Z,2.34
2017-04-29T03:15:52.448Z,2.36
2017-04-29T03:16:41.555Z,2.32
2017-04-29T03:17:35.552Z,2.27
2017-04-29T03:18:29.759Z,2.28
2017-04-29T03:19:29.637Z,2.30
2017-04-29T03:20:24.762Z,2.27
2017-04-29T03:21:30.660Z,2.26
2017-04-29T03:22:30.665Z,2.18
2017-04-29T03:23:31.717Z,2.10
2017-04-29T03:24:25.755Z,2.06
2017-04-29T03:25:25.749Z,2.03
2017-04-29T03:26:20.814Z,1.98
2017-04-29T03:27:20.799Z,1.92
2017-04-29T03:28:20.846Z,1.87
2017-04-29T03:29:20.926Z,1.86
2017-04-29T03:30:20.916Z,1.87
2017-04-29T03:31:26.967Z,1.87
2017-04-29T03:32:21.980Z,1.84
2017-04-29T03:33:21.963Z,1.79
2017-04-29T03:34:17.017Z,1.73
2017-04-29T03:35:12.030Z,1.74
2017-04-29T03:36:13.018Z,1.74
2017-04-29T03:37:13.102Z,1.71
2017-04-29T03:38:13.113Z,1.69
2017-04-29T03:39:13.257Z,1.67
2017-04-29T03:40:13.200Z,1.60
2017-04-29T03:41:13.184Z,1.58
2017-04-29T03:42:13.206Z,1.58
2017-04-29T03:43:13.203Z,1.58
2017-04-29T03:44:13.290Z,1.57
2017-04-29T03:45:13.307Z,1.59
2017-04-29T03:46:13.321Z,1.54
2017-04-29T03:47:08.309Z,1.56
2017-04-29T03:48:02.336Z,1.56
2017-04-29T03:49:02.397Z,1.55
2017-04-29T03:49:57.441Z,1.60
2017-04-29T03:50:52.420Z,1.69
2017-04-29T03:51:52.505Z,1.76
2017-04-29T03:52:47.526Z,1.78
2017-04-29T03:53:42.555Z,1.85
2017-04-29T03:54:36.558Z,1.93
2017-04-29T03:55:37.564Z,2.00
2017-04-29T03:56:32.620Z,2.07
2017-04-29T03:57:32.669Z,2.13
2017-04-29T03:58:32.707Z,2.18
2017-04-29T03:59:26.713Z,2.20
2017-04-29T04:00:27.740Z,2.26
2017-04-29T04:01:28.738Z,2.30
2017-04-29T04:02:28.743Z,2.34
2017-04-29T04:03:28.848Z,2.36
2017-04-29T04:04:28.818Z,2.36
2017-04-29T04:05:28.851Z,2.38
2017-04-29T04:06:28.905Z,2.41
2017-04-29T04:07:28.901Z,2.38
2017-04-29T04:08:28.996Z,2.40
2017-04-29T04:09:28.958Z,2.41
2017-04-29T04:10:29.001Z,2.43
2017-04-29T04:11:29.016Z,2.48
2017-04-29T04:12:29.027Z,2.50
2017-04-29T04:13:29.126Z,2.54
2017-04-29T04:14:29.170Z,2.54
2017-04-29T04:15:29.126Z,2.56
2017-04-29T04:16:29.135Z,2.55
2017-04-29T04:17:29.198Z,2.57
2017-04-29T04:18:29.205Z,2.56
2017-04-29T04:19:29.220Z,2.58
2017-04-29T04:20:18.268Z,2.64
2017-04-29T04:21:12.289Z,2.67
2017-04-29T04:22:12.310Z,2.75
2017-04-29T04:23:12.352Z,2.71
2017-04-29T04:24:07.420Z,2.77
2017-04-29T04:25:01.427Z,2.80
2017-04-29T04:25:55.446Z,2.76
2017-04-29T04:26:50.615Z,2.76
2017-04-29T04:27:50.498Z,2.84
2017-04-29T04:28:44.536Z,2.73
2017-04-29T04:29:32.568Z,2.76
2017-04-29T04:30:20.611Z,2.74
2017-04-29T04:31:09.658Z,2.74
2017-04-29T04:32:09.696Z,2.71
2017-04-29T04:33:04.729Z,2.74
2017-04-29T04:33:52.736Z,2.74
2017-04-29T04:34:41.780Z,2.74
2017-04-29T04:35:41.833Z,2.76
2017-04-29T04:36:29.843Z,2.71
2017-04-29T04:37:18.926Z,2.75
2017-04-29T04:38:06.982Z,2.74
2017-04-29T04:38:55.957Z,2.74
2017-04-29T04:39:45.295Z,2.70
2017-04-29T04:40:34.037Z,2.77
2017-04-29T04:41:22.066Z,2.78
2017-04-29T04:42:16.108Z,2.76
2017-04-29T04:43:10.217Z,2.82
2017-04-29T04:43:58.188Z,2.82
2017-04-29T04:44:46.156Z,2.82
2017-04-29T04:45:35.255Z,2.84
2017-04-29T04:46:23.309Z,2.84
2017-04-29T04:47:12.366Z,2.88
2017-04-29T04:48:00.383Z,2.86
2017-04-29T04:48:48.437Z,2.89
2017-04-29T04:49:36.481Z,2.94
2017-04-29T04:50:25.500Z,2.89
2017-04-29T04:51:14.541Z,2.89
2017-04-29T04:52:02.554Z,2.83
2017-04-29T04:52:50.600Z,2.87
2017-04-29T04:53:39.644Z,2.86
2017-04-29T04:54:27.702Z,2.86
2017-04-29T04:55:15.724Z,2.86
2017-04-29T04:56:04.741Z,2.88
2017-04-29T04:56:52.776Z,2.88
2017-04-29T04:57:40.855Z,2.88
2017-04-29T04:58:29.837Z,2.87
2017-04-29T04:59:23.947Z,2.90
2017-04-29T05:00:12.017Z,2.92
2017-04-29T05:00:59.986Z,2.91
2017-04-29T05:01:49.041Z,2.96
2017-04-29T05:02:37.055Z,2.97
2017-04-29T05:03:26.106Z,2.96
2017-04-29T05:04:14.417Z,2.96
2017-04-29T05:05:02.187Z,2.98
2017-04-29T05:05:50.236Z,2.96
2017-04-29T05:06:39.280Z,2.97
2017-04-29T05:07:27.274Z,3.04
2017-04-29T05:08:21.312Z,3.07
2017-04-29T05:09:09.364Z,3.10
2017-04-29T05:09:57.413Z,3.10
2017-04-29T05:10:46.411Z,3.09
2017-04-29T05:11:34.550Z,3.16
2017-04-29T05:12:23.624Z,3.16
2017-04-29T05:13:11.537Z,3.20
2017-04-29T05:13:59.619Z,3.19
2017-04-29T05:14:48.686Z,3.26
2017-04-29T05:15:36.681Z,3.26
2017-04-29T05:16:25.732Z,3.32
2017-04-29T05:17:13.899Z,3.26
2017-04-29T05:18:01.824Z,3.36
2017-04-29T05:18:50.841Z,3.37
2017-04-29T05:19:38.900Z,3.35
2017-04-29T05:20:27.913Z,3.41
2017-04-29T05:21:21.992Z,3.41
2017-04-29T05:22:21.986Z,3.39
2017-04-29T05:23:11.044Z,3.38
2017-04-29T05:24:06.054Z,3.44
2017-04-29T05:25:06.094Z,3.44
2017-04-29T05:26:01.112Z,3.50
2017-04-29T05:26:56.182Z,3.50
2017-04-29T05:27:50.215Z,3.51
2017-04-29T05:28:51.215Z,3.57
2017-04-29T05:29:51.240Z,3.54
2017-04-29T05:30:46.265Z,3.64
2017-04-29T05:31:46.312Z,3.56
2017-04-29T05:32:46.349Z,3.53
2017-04-29T05:33:46.510Z,3.62
2017-04-29T05:34:40.382Z,3.60
2017-04-29T05:35:40.419Z,3.59
2017-04-29T05:36:35.443Z,3.58
2017-04-29T05:37:30.515Z,3.68
2017-04-29T05:38:24.531Z,3.70
2017-04-29T05:39:25.571Z,3.72
2017-04-29T05:40:31.566Z,3.76
2017-04-29T05:41:31.651Z,3.84
2017-04-29T05:42:31.657Z,3.90
2017-04-29T05:43:25.648Z,3.92
2017-04-29T05:44:26.752Z,3.99
2017-04-29T05:45:21.745Z,4.06
2017-04-29T05:46:21.782Z,4.08
2017-04-29T05:47:15.775Z,4.21
2017-04-29T05:48:03.843Z,4.12
2017-04-29T05:48:52.862Z,4.14
2017-04-29T05:49:42.363Z,4.17
2017-04-29T05:50:29.967Z,4.27
2017-04-29T05:51:19.021Z,4.36
2017-04-29T05:52:14.056Z,4.35
2017-04-29T05:53:14.047Z,4.36
2017-04-29T05:54:14.416Z,4.44
2017-04-29T05:55:14.141Z,4.48
2017-04-29T05:56:03.170Z,4.53
2017-04-29T05:56:57.225Z,4.54
2017-04-29T05:57:45.258Z,4.59
2017-04-29T05:58:34.295Z,4.64
2017-04-29T05:59:22.341Z,4.74
2017-04-29T06:00:10.467Z,4.82
2017-04-29T06:00:59.469Z,4.88
2017-04-29T06:01:47.456Z,4.93
2017-04-29T06:02:35.513Z,4.88
2017-04-29T06:03:23.545Z,5.02
2017-04-29T06:04:17.555Z,5.04
2017-04-29T06:05:06.633Z,5.08
2017-04-29T06:06:06.713Z,5.14
2017-04-29T06:07:06.648Z,5.20
2017-04-29T06:08:00.739Z,5.25
2017-04-29T06:09:01.765Z,5.36
2017-04-29T06:10:02.780Z,5.46
2017-04-29T06:10:57.822Z,5.50
2017-04-29T06:11:58.147Z,5.50
2017-04-29T06:12:52.869Z,5.56
2017-04-29T06:13:52.940Z,5.64
2017-04-29T06:14:48.249Z,5.76
2017-04-29T06:15:37.056Z,5.78
2017-04-29T06:16:31.045Z,5.85
2017-04-29T06:17:19.399Z,5.89
2017-04-29T06:18:08.130Z,5.83
2017-04-29T06:19:02.167Z,5.93
2017-04-29T06:19:57.219Z,6.01
2017-04-29T06:20:57.237Z,6.18
2017-04-29T06:21:51.235Z,6.22
2017-04-29T06:22:51.836Z,6.28
2017-04-29T06:23:51.379Z,6.26
2017-04-29T06:24:51.348Z,6.32
2017-04-29T06:25:40.427Z,6.30
2017-04-29T06:26:29.459Z,6.38
2017-04-29T06:27:18.530Z,6.37
2017-04-29T06:28:06.864Z,6.39
2017-04-29T06:28:55.585Z,6.46
2017-04-29T06:29:49.896Z,6.52
2017-04-29T06:30:49.646Z,6.54
2017-04-29T06:31:43.708Z,6.53
2017-04-29T06:32:37.754Z,6.53
2017-04-29T06:33:38.141Z,6.56
2017-04-29T06:34:37.829Z,6.61
2017-04-29T06:35:32.861Z,6.68
2017-04-29T06:36:26.877Z,6.77
2017-04-29T06:37:20.940Z,6.84
2017-04-29T06:38:14.985Z,6.98
2017-04-29T06:39:09.506Z,6.88
2017-04-29T06:40:03.055Z,6.90
2017-04-29T06:40:58.069Z,6.94
2017-04-29T06:41:52.157Z,6.99
2017-04-29T06:42:46.142Z,6.89
2017-04-29T06:43:34.237Z,6.87
2017-04-29T06:44:29.511Z,6.94
2017-04-29T06:45:24.259Z,7.03
2017-04-29T06:46:13.307Z,7.06
2017-04-29T06:47:02.364Z,7.06
2017-04-29T06:47:50.372Z,7.01
2017-04-29T06:48:44.440Z,7.08
2017-04-29T06:49:38.786Z,7.03
2017-04-29T06:50:33.530Z,7.13
2017-04-29T06:51:22.565Z,7.08
2017-04-29T06:52:22.617Z,7.00
2017-04-29T06:53:17.650Z,6.86
2017-04-29T06:54:11.674Z,7.00
2017-04-29T06:55:01.245Z,6.99
2017-04-29T06:55:49.766Z,7.03
2017-04-29T06:56:38.813Z,7.12
2017-04-29T06:57:27.915Z,7.04
2017-04-29T06:58:27.871Z,7.16
2017-04-29T06:59:17.226Z,7.30
2017-04-29T07:00:05.265Z,7.39
2017-04-29T07:01:05.047Z,7.40
2017-04-29T07:01:59.055Z,7.59
2017-04-29T07:02:47.120Z,7.70
2017-04-29T07:03:41.140Z,7.74
2017-04-29T07:04:29.230Z,7.72
2017-04-29T07:05:30.508Z,7.72
2017-04-29T07:06:30.268Z,7.92
2017-04-29T07:07:18.304Z,8.23
2017-04-29T07:08:12.370Z,8.39
2017-04-29T07:09:01.416Z,8.40
2017-04-29T07:09:50.727Z,8.82
2017-04-29T07:10:38.596Z,9.67
2017-04-29T07:11:32.538Z,10.85
2017-04-29T07:12:21.574Z,11.46
2017-04-29T07:13:16.619Z,11.47
2017-04-29T07:14:10.816Z,11.82
2017-04-29T07:14:59.732Z,11.82
2017-04-29T07:15:53.755Z,12.18
2017-04-29T07:16:48.871Z,12.45
2017-04-29T07:17:42.819Z,12.38
2017-04-29T07:18:36.838Z,12.33
2017-04-29T07:19:36.992Z,11.65
2017-04-29T07:20:30.967Z,11.58
2017-04-29T07:21:20.010Z,11.92
2017-04-29T07:22:20.044Z,12.52
2017-04-29T07:23:15.105Z,13.15
2017-04-29T07:24:09.154Z,13.24
2017-04-29T07:25:03.172Z,13.32
2017-04-29T07:25:58.259Z,13.19
2017-04-29T07:26:52.304Z,12.54
2017-04-29T07:27:52.346Z,11.89
2017-04-29T07:28:41.376Z,12.05
2017-04-29T07:29:35.451Z,12.04
2017-04-29T07:30:30.463Z,11.97
2017-04-29T07:31:30.519Z,12.13
2017-04-29T07:32:24.588Z,12.01
2017-04-29T07:33:18.599Z,11.26
2017-04-29T07:34:12.927Z,10.78
2017-04-29T07:35:07.664Z,10.47
2017-04-29T07:36:07.732Z,10.26
2017-04-29T07:37:01.758Z,10.26
2017-04-29T07:37:50.824Z,10.16
2017-04-29T07:38:44.881Z,9.91
2017-04-29T07:39:38.915Z,9.72
2017-04-29T07:40:27.976Z,9.61
2017-04-29T07:41:28.012Z,9.64
2017-04-29T07:42:22.061Z,9.56
2017-04-29T07:43:23.248Z,9.42
2017-04-29T07:44:23.165Z,9.36
2017-04-29T07:45:18.186Z,9.36
2017-04-29T07:46:18.258Z,9.36
2017-04-29T07:47:07.298Z,9.50
2017-04-29T07:47:55.324Z,9.52
2017-04-29T07:48:49.438Z,9.40
2017-04-29T07:49:37.436Z,9.26
2017-04-29T07:50:31.468Z,9.12
2017-04-29T07:51:31.518Z,9.16
2017-04-29T07:52:26.566Z,9.28
2017-04-29T07:53:26.587Z,9.52
2017-04-29T07:54:15.928Z,9.62
2017-04-29T07:55:10.685Z,9.31
2017-04-29T07:56:04.716Z,9.27
2017-04-29T07:56:53.749Z,9.32
2017-04-29T07:57:53.833Z,10.02
2017-04-29T07:58:41.858Z,10.54
2017-04-29T07:59:30.946Z,10.86
2017-04-29T08:00:25.942Z,11.08
2017-04-29T08:01:21.005Z,10.90
2017-04-29T08:02:15.046Z,10.44
2017-04-29T08:03:04.079Z,10.42
2017-04-29T08:03:53.154Z,10.44
2017-04-29T08:04:48.219Z,10.36
2017-04-29T08:05:37.257Z,10.59
2017-04-29T08:06:32.258Z,10.97
2017-04-29T08:07:26.310Z,11.34
2017-04-29T08:08:21.352Z,11.04
2017-04-29T08:09:16.610Z,10.88
2017-04-29T08:10:05.475Z,10.57
2017-04-29T08:11:00.491Z,10.32
2017-04-29T08:11:49.544Z,10.27
2017-04-29T08:12:38.627Z,10.18
2017-04-29T08:13:32.667Z,9.98
2017-04-29T08:14:21.653Z,9.92
2017-04-29T08:15:22.781Z,9.81
2017-04-29T08:16:17.775Z,9.80
2017-04-29T08:17:06.825Z,9.91
2017-04-29T08:18:01.851Z,10.05
2017-04-29T08:18:50.964Z,9.89
2017-04-29T08:19:39.956Z,9.90
2017-04-29T08:20:29.055Z,10.27
2017-04-29T08:21:18.066Z,10.36
2017-04-29T08:22:12.337Z,10.32
2017-04-29T08:23:00.157Z,10.22
2017-04-29T08:23:48.209Z,10.07
2017-04-29T08:24:49.441Z,9.98
2017-04-29T08:25:50.315Z,10.12
2017-04-29T08:26:39.397Z,10.14
2017-04-29T08:27:27.401Z,9.99
2017-04-29T08:28:21.451Z,9.85
2017-04-29T08:29:09.483Z,9.69
2017-04-29T08:29:58.542Z,9.50
2017-04-29T08:30:46.587Z,9.34
2017-04-29T08:31:41.743Z,9.20
2017-04-29T08:32:29.637Z,9.11
2017-04-29T08:33:18.750Z,8.98
2017-04-29T08:34:06.753Z,8.96
2017-04-29T08:35:00.813Z,8.91
2017-04-29T08:35:48.852Z,8.97
2017-04-29T08:36:49.913Z,8.88
2017-04-29T08:37:37.959Z,8.94
2017-04-29T08:38:27.020Z,8.90
2017-04-29T08:39:21.005Z,8.84
2017-04-29T08:40:16.067Z,8.84
2017-04-29T08:41:10.123Z,8.95
2017-04-29T08:41:59.211Z,9.12
2017-04-29T08:42:47.246Z,9.10
2017-04-29T08:43:47.280Z,9.10
2017-04-29T08:44:42.315Z,9.34
2017-04-29T08:45:37.340Z,9.41
2017-04-29T08:46:26.390Z,9.52
2017-04-29T08:47:14.654Z,9.67
2017-04-29T08:48:08.462Z,9.68
2017-04-29T08:48:56.562Z,9.77
2017-04-29T08:49:50.869Z,9.80
2017-04-29T08:50:44.644Z,9.87
2017-04-29T08:51:38.657Z,9.82
2017-04-29T08:52:32.727Z,9.78
2017-04-29T08:53:26.743Z,9.76
2017-04-29T08:54:15.800Z,9.80
2017-04-29T08:55:09.840Z,9.78
2017-04-29T08:56:03.875Z,10.02
2017-04-29T08:56:52.945Z,10.16
2017-04-29T08:57:47.013Z,10.09
2017-04-29T08:58:42.040Z,10.08
2017-04-29T08:59:36.043Z,10.04
2017-04-29T09:00:24.115Z,9.83
2017-04-29T09:01:24.158Z,9.76
2017-04-29T09:02:12.421Z,9.70
2017-04-29T09:03:07.379Z,9.62
2017-04-29T09:04:01.276Z,9.32
2017-04-29T09:04:55.360Z,9.04
2017-04-29T09:05:55.389Z,8.91
2017-04-29T09:06:50.404Z,8.85
2017-04-29T09:07:44.456Z,8.77
2017-04-29T09:08:38.550Z,8.69
2017-04-29T09:09:32.569Z,8.64
2017-04-29T09:10:33.611Z,8.64
2017-04-29T09:11:28.678Z,8.76
2017-04-29T09:12:16.677Z,8.84
2017-04-29T09:13:10.741Z,8.99
2017-04-29T09:13:59.779Z,9.16
2017-04-29T09:14:48.853Z,9.32
2017-04-29T09:15:43.870Z,9.46
2017-04-29T09:16:32.859Z,9.68
2017-04-29T09:17:20.935Z,9.89
2017-04-29T09:18:10.007Z,9.98
2017-04-29T09:18:59.056Z,9.96
2017-04-29T09:19:53.385Z,10.06
2017-04-29T09:20:47.137Z,9.98
2017-04-29T09:21:41.161Z,9.87
2017-04-29T09:22:35.241Z,9.95
2017-04-29T09:23:23.288Z,9.77
2017-04-29T09:24:12.316Z,9.60
2017-04-29T09:25:12.353Z,9.76
2017-04-29T09:26:00.426Z,9.82
2017-04-29T09:27:00.447Z,9.95
2017-04-29T09:27:54.488Z,9.74
2017-04-29T09:28:49.539Z,10.08
2017-04-29T09:29:49.529Z,10.07
2017-04-29T09:30:49.634Z,10.12
2017-04-29T09:31:43.662Z,10.49
2017-04-29T09:32:37.723Z,11.04
2017-04-29T09:33:31.762Z,11.39
2017-04-29T09:34:20.061Z,11.90
2017-04-29T09:35:08.834Z,12.78
2017-04-29T09:36:02.920Z,13.29
2017-04-29T09:36:56.948Z,13.85
2017-04-29T09:37:51.942Z,14.93
2017-04-29T09:38:40.034Z,15.38
2017-04-29T09:39:40.067Z,15.47
2017-04-29T09:40:35.131Z,15.10
2017-04-29T09:41:29.165Z,14.72
2017-04-29T09:42:23.240Z,13.22
2017-04-29T09:43:17.247Z,12.80
2017-04-29T09:44:17.327Z,13.00
2017-04-29T09:45:05.348Z,13.50
2017-04-29T09:45:59.436Z,14.29
2017-04-29T09:46:53.456Z,15.19
2017-04-29T09:47:41.521Z,15.90
2017-04-29T09:48:30.568Z,16.22
2017-04-29T09:49:19.955Z,16.44
2017-04-29T09:50:13.968Z,16.82
2017-04-29T09:51:08.730Z,16.98
2017-04-29T09:52:03.746Z,15.74
2017-04-29T09:52:51.998Z,14.76
2017-04-29T09:53:40.906Z,13.86
2017-04-29T09:54:28.956Z,14.25
2017-04-29T09:55:24.020Z,14.91
2017-04-29T09:56:25.057Z,15.42
2017-04-29T09:57:14.144Z,15.02
2017-04-29T09:58:03.169Z,14.29
2017-04-29T09:58:52.245Z,13.77
2017-04-29T09:59:41.266Z,13.26
2017-04-29T10:00:30.327Z,13.20
2017-04-29T10:01:19.424Z,12.96
2017-04-29T10:02:07.446Z,12.76
2017-04-29T10:03:07.517Z,12.24
2017-04-29T10:04:01.565Z,11.76
2017-04-29T10:04:55.556Z,11.55
2017-04-29T10:05:44.638Z,11.35
2017-04-29T10:06:33.729Z,11.22
2017-04-29T10:07:28.739Z,10.70
2017-04-29T10:08:17.858Z,10.38
2017-04-29T10:09:06.891Z,10.14
2017-04-29T10:09:55.889Z,9.95
2017-04-29T10:10:55.969Z,9.93
2017-04-29T10:11:51.018Z,9.92
2017-04-29T10:12:40.050Z,9.86
2017-04-29T10:13:29.133Z,9.82
2017-04-29T10:14:23.207Z,9.86
2017-04-29T10:15:18.212Z,9.88
2017-04-29T10:16:12.267Z,9.96
2017-04-29T10:17:06.318Z,9.96
2017-04-29T10:18:06.316Z,9.99
2017-04-29T10:19:06.413Z,10.04
2017-04-29T10:19:55.733Z,10.35
2017-04-29T10:20:49.454Z,11.29
2017-04-29T10:21:37.546Z,11.66
2017-04-29T10:22:26.555Z,11.82
2017-04-29T10:23:26.648Z,11.80
2017-04-29T10:24:14.718Z,11.69
2017-04-29T10:25:14.717Z,11.46
2017-04-29T10:26:03.743Z,11.22
2017-04-29T10:26:52.830Z,11.17
2017-04-29T10:27:46.860Z,11.36
2017-04-29T10:28:41.885Z,11.52
2017-04-29T10:29:37.038Z,12.07
2017-04-29T10:30:25.009Z,12.49
2017-04-29T10:31:19.066Z,12.94
2017-04-29T10:32:13.099Z,13.84
2017-04-29T10:33:13.132Z,15.22
2017-04-29T10:34:01.228Z,16.18
2017-04-29T10:34:55.527Z,16.64
2017-04-29T10:35:49.294Z,17.22
2017-04-29T10:36:43.314Z,17.78
2017-04-29T10:37:43.384Z,18.51
2017-04-29T10:38:32.439Z,18.67
2017-04-29T10:39:27.544Z,18.62
2017-04-29T10:40:21.642Z,18.79
2017-04-29T10:41:10.598Z,18.55
2017-04-29T10:41:59.674Z,18.41
2017-04-29T10:42:47.737Z,18.93
2017-04-29T10:43:41.776Z,19.02
2017-04-29T10:44:29.835Z,18.35
2017-04-29T10:45:23.865Z,17.72
2017-04-29T10:46:23.916Z,17.03
2017-04-29T10:47:11.952Z,15.97
2017-04-29T10:48:12.073Z,14.60
2017-04-29T10:49:01.118Z,14.02
2017-04-29T10:49:55.100Z,13.66
2017-04-29T10:50:50.213Z,13.52
2017-04-29T10:51:44.228Z,13.20
2017-04-29T10:52:38.325Z,13.13
2017-04-29T10:53:27.347Z,13.04
2017-04-29T10:54:21.743Z,12.89
2017-04-29T10:55:16.458Z,12.75
2017-04-29T10:56:16.966Z,12.72
2017-04-29T10:57:10.568Z,12.68
2017-04-29T10:58:10.636Z,12.34
2017-04-29T10:59:05.666Z,12.22
2017-04-29T11:00:00.733Z,12.03
2017-04-29T11:00:54.756Z,12.46
2017-04-29T11:01:49.155Z,13.48
2017-04-29T11:02:42.861Z,14.64
2017-04-29T11:03:42.929Z,15.59
2017-04-29T11:04:37.010Z,15.88
2017-04-29T11:05:37.033Z,15.46
2017-04-29T11:06:26.084Z,14.78
2017-04-29T11:07:20.363Z,14.10
2017-04-29T11:08:09.166Z,13.69
2017-04-29T11:09:03.258Z,13.37
2017-04-29T11:09:57.278Z,12.68
2017-04-29T11:10:52.324Z,12.20
2017-04-29T11:11:53.369Z,11.96
2017-04-29T11:12:42.523Z,11.92
2017-04-29T11:13:36.498Z,11.85
2017-04-29T11:14:30.483Z,11.82
2017-04-29T11:15:30.582Z,11.70
2017-04-29T11:16:24.651Z,11.41
2017-04-29T11:17:18.726Z,11.44
2017-04-29T11:18:12.746Z,11.48
2017-04-29T11:19:06.784Z,11.62
2017-04-29T11:19:55.817Z,11.58
2017-04-29T11:20:44.892Z,11.46
2017-04-29T11:21:39.941Z,11.28
2017-04-29T11:22:28.968Z,11.22
2017-04-29T11:23:23.087Z,11.30
2017-04-29T11:24:17.055Z,11.44
2017-04-29T11:25:17.143Z,11.40
2017-04-29T11:26:11.175Z,11.44
2017-04-29T11:27:06.296Z,11.49
2017-04-29T11:28:00.248Z,11.37
2017-04-29T11:28:55.386Z,11.30
2017-04-29T11:29:50.382Z,11.46
2017-04-29T11:30:44.368Z,11.56
2017-04-29T11:31:38.438Z,11.64
2017-04-29T11:32:27.495Z,11.77
2017-04-29T11:33:21.550Z,11.89
2017-04-29T11:34:16.625Z,12.78
2017-04-29T11:35:16.653Z,14.07
2017-04-29T11:36:10.662Z,15.31
2017-04-29T11:37:10.757Z,16.44
2017-04-29T11:37:58.755Z,17.12
2017-04-29T11:38:52.839Z,17.70
2017-04-29T11:39:40.862Z,18.46
2017-04-29T11:40:35.955Z,18.40
2017-04-29T11:41:25.019Z,17.76
2017-04-29T11:42:25.039Z,16.40
2017-04-29T11:43:13.076Z,15.72
2017-04-29T11:44:08.136Z,14.72
2017-04-29T11:45:03.240Z,14.18